Time;durP1;ratioP1;P1;durP2;ratioP2;P2;SDS_P1;SDS_P2;PMS_P1;PMS_P2;Temp;Humidity;BMP_temperature;BMP_pressure;BME280_temperature;BME280_humidity;BME280_pressure;Samples;Min_cycle;Max_cycle;Signal;HPM_P1;HPM_P2
2021/05/12 00:00:20;;;;;;;36.93;33.17;;;12.50;99.90;;;;;;5096333;28;20507;-68
2021/05/12 00:02:46;;;;;;;35.57;31.97;;;12.40;99.90;;;;;;5096405;28;20631;-68
2021/05/12 00:05:13;;;;;;;38.03;33.63;;;12.40;99.90;;;;;;5096578;28;20438;-68
2021/05/12 00:07:39;;;;;;;35.80;32.10;;;12.50;99.90;;;;;;5096249;28;20423;-68
2021/05/12 00:10:06;;;;;;;36.93;33.10;;;12.40;99.90;;;;;;5096232;28;20424;-68
2021/05/12 00:12:32;;;;;;;37.20;33.30;;;12.40;99.90;;;;;;5096274;28;20262;-68
2021/05/12 00:14:57;;;;;;;39.97;35.87;;;12.40;99.90;;;;;;5095450;28;20621;-68
2021/05/12 00:17:23;;;;;;;36.47;32.80;;;12.30;99.90;;;;;;5080413;28;20183;-68
2021/05/12 00:19:56;;;;;;;38.10;34.17;;;12.30;99.90;;;;;;5075505;28;20199;-68
2021/05/12 00:25:09;;;;;;;38.90;34.80;;;12.20;99.90;;;;;;5074853;28;20809;-68
2021/05/12 00:27:35;;;;;;;38.47;34.60;;;12.20;99.90;;;;;;5075691;28;20393;-68
2021/05/12 00:30:01;;;;;;;39.37;33.60;;;12.20;99.90;;;;;;5075580;28;20397;-68
2021/05/12 00:32:26;;;;;;;37.53;33.43;;;12.20;99.90;;;;;;5076127;28;20199;-68
2021/05/12 00:34:52;;;;;;;39.50;35.47;;;12.20;99.90;;;;;;5075611;28;20163;-68
2021/05/12 00:37:18;;;;;;;41.07;36.77;;;12.20;99.90;;;;;;5075474;28;20195;-68
2021/05/12 00:39:43;;;;;;;44.60;36.73;;;12.20;99.90;;;;;;5075380;28;20187;-68
2021/05/12 00:42:09;;;;;;;39.70;35.40;;;12.20;99.90;;;;;;5075447;28;20151;-68
2021/05/12 00:44:35;;;;;;;41.00;35.57;;;12.20;99.90;;;;;;5075344;28;20191;-68
2021/05/12 00:47:04;;;;;;;39.70;35.60;;;12.20;99.90;;;;;;5075293;28;20501;-68
2021/05/12 00:49:30;;;;;;;41.90;37.40;;;12.20;99.90;;;;;;5075896;28;20199;-68
2021/05/12 00:51:56;;;;;;;41.20;37.03;;;12.10;99.90;;;;;;5075022;28;20436;-68
2021/05/12 00:54:22;;;;;;;42.27;37.90;;;12.10;99.90;;;;;;5075024;28;20417;-68
2021/05/12 00:56:47;;;;;;;38.43;34.40;;;12.10;99.90;;;;;;5075116;28;20697;-68
2021/05/12 00:59:13;;;;;;;38.53;34.90;;;12.10;99.90;;;;;;5074798;28;20521;-68
2021/05/12 01:01:38;;;;;;;42.33;37.90;;;12.10;99.90;;;;;;5075092;28;20251;-68
2021/05/12 01:04:07;;;;;;;41.60;36.80;;;12.00;99.90;;;;;;5074999;28;20237;-68
2021/05/12 01:06:36;;;;;;;41.27;35.87;;;12.00;99.90;;;;;;5075748;28;20179;-68
2021/05/12 01:09:04;;;;;;;40.73;36.53;;;12.00;99.90;;;;;;5074889;28;20899;-68
2021/05/12 01:11:30;;;;;;;44.97;40.10;;;12.00;99.90;;;;;;5075057;28;20805;-68
2021/05/12 01:13:56;;;;;;;48.23;40.13;;;12.00;99.90;;;;;;5074842;28;20390;-68
2021/05/12 01:16:22;;;;;;;62.97;48.70;;;12.10;99.90;;;;;;5074747;28;20167;-68
2021/05/12 01:18:48;;;;;;;50.77;43.43;;;12.10;99.90;;;;;;5074462;28;20465;-68
2021/05/12 01:21:14;;;;;;;51.70;37.90;;;12.10;99.90;;;;;;5074988;28;20409;-68
2021/05/12 01:23:43;;;;;;;44.30;37.73;;;12.10;99.90;;;;;;5092317;28;20178;-68
2021/05/12 01:26:14;;;;;;;40.33;35.80;;;12.10;99.90;;;;;;5094990;28;20416;-68
2021/05/12 01:28:43;;;;;;;38.20;34.30;;;12.00;99.90;;;;;;5094880;28;20446;-68
2021/05/12 01:33:50;;;;;;;40.70;35.00;;;11.90;99.90;;;;;;5110765;27;20571;-68
2021/05/12 01:36:16;;;;;;;37.57;33.80;;;11.90;99.90;;;;;;5110569;28;20752;-68
2021/05/12 01:38:44;;;;;;;38.37;34.27;;;11.90;99.90;;;;;;5109515;28;20380;-68
2021/05/12 01:41:10;;;;;;;38.77;34.30;;;11.80;99.90;;;;;;5090222;28;20612;-68
2021/05/12 01:43:36;;;;;;;40.13;36.17;;;11.70;99.90;;;;;;5090324;28;20436;-68
2021/05/12 01:46:03;;;;;;;39.07;34.93;;;11.70;99.90;;;;;;5090162;28;20166;-68
2021/05/12 01:48:29;;;;;;;38.43;34.43;;;11.70;99.90;;;;;;5090053;28;20373;-68
2021/05/12 01:50:55;;;;;;;37.00;33.10;;;11.60;99.90;;;;;;5090129;28;20412;-68
2021/05/12 01:53:21;;;;;;;40.67;35.17;;;11.60;99.90;;;;;;5089944;28;20499;-68
2021/05/12 01:55:47;;;;;;;38.27;34.37;;;11.60;99.90;;;;;;5090528;28;20159;-68
2021/05/12 01:58:14;;;;;;;39.43;35.40;;;11.60;99.90;;;;;;5089856;28;20155;-68
2021/05/12 02:00:42;;;;;;;39.87;35.57;;;11.50;99.90;;;;;;5089836;28;20400;-68
2021/05/12 02:03:08;;;;;;;38.20;34.30;;;11.50;99.90;;;;;;5089836;28;20401;-68
2021/05/12 02:05:36;;;;;;;44.90;37.87;;;11.50;99.90;;;;;;5089774;28;20400;-68
2021/05/12 02:08:04;;;;;;;41.07;36.77;;;11.40;99.90;;;;;;5089725;28;20469;-68
2021/05/12 02:10:31;;;;;;;40.83;36.50;;;11.40;99.90;;;;;;5089790;28;20396;-68
2021/05/12 02:12:57;;;;;;;41.47;37.03;;;11.40;99.90;;;;;;5090111;28;20510;-68
2021/05/12 02:15:23;;;;;;;39.67;35.60;;;11.30;99.90;;;;;;5090351;28;20393;-71
2021/05/12 02:17:49;;;;;;;42.60;38.10;;;11.30;99.90;;;;;;5089642;28;20428;-71
2021/05/12 02:20:18;;;;;;;43.10;38.53;;;11.30;99.90;;;;;;5089727;28;20401;-71
2021/05/12 02:22:43;;;;;;;40.67;36.27;;;11.30;99.90;;;;;;5089373;28;20393;-71
2021/05/12 02:25:10;;;;;;;43.00;38.60;;;11.30;99.90;;;;;;5089586;28;20408;-71
2021/05/12 02:27:36;;;;;;;38.23;34.10;;;11.20;99.90;;;;;;5089403;28;20163;-71
2021/05/12 02:30:05;;;;;;;40.63;36.23;;;11.20;99.90;;;;;;5093507;28;20935;-71
2021/05/12 02:32:30;;;;;;;42.43;37.90;;;11.20;99.90;;;;;;5109484;28;20202;-71
2021/05/12 02:34:57;;;;;;;40.13;36.13;;;11.20;99.90;;;;;;5109835;28;20399;-71
2021/05/12 02:37:23;;;;;;;43.23;38.63;;;11.10;99.90;;;;;;5110003;28;20178;-69
2021/05/12 02:39:49;;;;;;;42.50;38.10;;;11.10;99.90;;;;;;5109615;28;20388;-68
2021/05/12 02:42:14;;;;;;;43.33;38.90;;;11.10;99.90;;;;;;5109657;28;20396;-68
2021/05/12 02:44:40;;;;;;;41.37;36.90;;;11.10;99.90;;;;;;5098757;28;20635;-68
2021/05/12 02:47:06;;;;;;;43.63;37.97;;;11.10;99.90;;;;;;5094972;28;20227;-68
2021/05/12 02:49:32;;;;;;;42.40;38.00;;;11.00;99.90;;;;;;5096116;28;20170;-68
2021/05/12 02:51:58;;;;;;;44.27;39.50;;;11.00;99.90;;;;;;5095695;28;20432;-68
2021/05/12 02:54:23;;;;;;;42.83;38.43;;;11.00;99.90;;;;;;5095601;28;20151;-68
2021/05/12 02:56:49;;;;;;;43.57;38.97;;;11.00;99.90;;;;;;5095559;28;20151;-68
2021/05/12 02:59:15;;;;;;;41.80;37.37;;;11.00;99.90;;;;;;5095404;28;20182;-68
2021/05/12 03:01:40;;;;;;;43.37;38.20;;;10.90;99.90;;;;;;5095546;28;20159;-68
2021/05/12 03:04:06;;;;;;;42.33;38.07;;;10.90;99.90;;;;;;5094818;28;20163;-68
2021/05/12 03:06:32;;;;;;;42.70;38.40;;;10.90;99.90;;;;;;5095498;28;20246;-68
2021/05/12 03:08:58;;;;;;;42.83;38.27;;;10.90;99.90;;;;;;5095384;28;20162;-68
2021/05/12 03:11:23;;;;;;;43.30;38.87;;;10.90;99.90;;;;;;5095279;28;20381;-68
2021/05/12 03:13:50;;;;;;;43.50;38.73;;;10.80;99.90;;;;;;5095225;28;20163;-68
2021/05/12 03:16:16;;;;;;;43.47;38.77;;;10.80;99.90;;;;;;5088979;28;20183;-68
2021/05/12 03:18:41;;;;;;;44.30;39.90;;;10.80;99.90;;;;;;5075176;28;20397;-68
2021/05/12 03:21:07;;;;;;;43.80;39.13;;;10.80;99.90;;;;;;5075561;28;20176;-68
2021/05/12 03:23:33;;;;;;;45.20;40.80;;;10.80;99.90;;;;;;5074873;28;20160;-68
2021/05/12 03:25:58;;;;;;;46.80;41.10;;;10.70;99.90;;;;;;5074832;28;20170;-68
2021/05/12 03:28:24;;;;;;;45.30;40.77;;;10.70;99.90;;;;;;5074833;28;20875;-68
2021/05/12 03:30:50;;;;;;;44.83;40.07;;;10.70;99.90;;;;;;5074812;28;20160;-68
2021/05/12 03:33:15;;;;;;;45.30;40.37;;;10.70;99.90;;;;;;5074826;28;20250;-68
2021/05/12 03:35:41;;;;;;;43.90;39.37;;;10.70;99.90;;;;;;5074569;28;20539;-68
2021/05/12 03:38:09;;;;;;;46.47;41.50;;;10.70;99.90;;;;;;5075147;28;20221;-68
2021/05/12 03:40:35;;;;;;;45.37;40.10;;;10.60;99.90;;;;;;5074543;28;20422;-68
2021/05/12 03:43:01;;;;;;;45.47;40.93;;;10.60;99.90;;;;;;5074471;28;20416;-68
2021/05/12 03:45:28;;;;;;;45.60;40.60;;;10.60;99.90;;;;;;5074381;28;20488;-68
2021/05/12 03:47:54;;;;;;;43.40;38.67;;;10.60;99.90;;;;;;5074616;28;20155;-68
2021/05/12 03:50:22;;;;;;;45.17;40.57;;;10.60;99.90;;;;;;5074418;28;20762;-68
2021/05/12 03:52:47;;;;;;;43.63;39.10;;;10.60;99.90;;;;;;5074312;28;20528;-68
2021/05/12 03:55:14;;;;;;;44.97;40.37;;;10.50;99.90;;;;;;5074057;28;20492;-68
2021/05/12 03:57:41;;;;;;;47.07;41.97;;;10.50;99.90;;;;;;5074218;28;20148;-68
2021/05/12 04:00:08;;;;;;;46.03;41.03;;;10.50;99.90;;;;;;5072907;28;20429;-68
2021/05/12 04:02:33;;;;;;;43.20;37.87;;;10.50;99.90;;;;;;5075944;28;20405;-68
2021/05/12 04:04:59;;;;;;;45.30;40.50;;;10.50;99.90;;;;;;5074475;28;20402;-68
2021/05/12 04:07:24;;;;;;;45.23;40.57;;;10.40;99.90;;;;;;5074037;28;20264;-68
2021/05/12 04:09:50;;;;;;;43.90;39.30;;;10.40;99.90;;;;;;5074032;28;20163;-68
2021/05/12 04:12:15;;;;;;;44.70;38.50;;;10.40;99.90;;;;;;5074205;28;20201;-68
2021/05/12 04:14:41;;;;;;;47.20;41.57;;;10.40;99.90;;;;;;5073999;28;20155;-68
2021/05/12 04:17:06;;;;;;;44.30;39.80;;;10.40;99.90;;;;;;5076004;28;20172;-68
2021/05/12 04:19:32;;;;;;;46.77;42.03;;;10.40;99.90;;;;;;5074190;28;20168;-68
2021/05/12 04:21:58;;;;;;;45.13;40.40;;;10.30;99.90;;;;;;5073887;28;20202;-68
2021/05/12 04:24:24;;;;;;;43.17;38.67;;;10.40;99.90;;;;;;5073940;28;20638;-68
2021/05/12 04:26:50;;;;;;;46.93;41.90;;;10.40;99.90;;;;;;5073651;28;20238;-68
2021/05/12 04:29:16;;;;;;;44.43;39.83;;;10.40;99.90;;;;;;5074118;28;20501;-68
2021/05/12 04:31:42;;;;;;;45.60;39.43;;;10.40;99.90;;;;;;5074977;28;20429;-68
2021/05/12 04:34:11;;;;;;;49.00;42.10;;;10.40;99.90;;;;;;5073744;28;20429;-68
2021/05/12 04:36:38;;;;;;;45.63;40.00;;;10.50;99.90;;;;;;5073545;28;20387;-68
2021/05/12 04:39:05;;;;;;;43.80;39.20;;;10.60;99.90;;;;;;5073342;28;20397;-68
2021/05/12 04:41:30;;;;;;;45.10;40.20;;;10.60;99.90;;;;;;5073363;28;20394;-68
2021/05/12 04:43:56;;;;;;;42.13;38.07;;;10.70;99.90;;;;;;5073381;28;20386;-68
2021/05/12 04:46:23;;;;;;;43.50;39.33;;;10.70;99.90;;;;;;5075704;28;20644;-68
2021/05/12 04:48:49;;;;;;;43.60;38.57;;;10.80;99.90;;;;;;5073797;28;20220;-68
2021/05/12 04:51:14;;;;;;;42.87;38.20;;;10.80;99.90;;;;;;5073531;28;20394;-68
2021/05/12 04:53:40;;;;;;;41.50;37.07;;;10.90;99.90;;;;;;5073153;28;20187;-68
2021/05/12 04:56:06;;;;;;;43.93;39.33;;;11.00;99.90;;;;;;5073221;28;20160;-68
2021/05/12 04:58:31;;;;;;;39.43;35.63;;;11.00;99.90;;;;;;5073150;28;20246;-68
2021/05/12 05:00:57;;;;;;;39.67;35.33;;;11.00;99.90;;;;;;5074998;28;20406;-68
2021/05/12 05:03:23;;;;;;;40.73;36.30;;;11.10;99.90;;;;;;5074453;28;20176;-68
2021/05/12 05:05:48;;;;;;;39.17;33.80;;;11.20;99.90;;;;;;5073148;28;20167;-68
2021/05/12 05:08:14;;;;;;;38.50;34.70;;;11.20;99.90;;;;;;5072862;28;20243;-68
2021/05/12 05:10:40;;;;;;;35.47;31.67;;;11.30;99.90;;;;;;5073080;28;20164;-68
2021/05/12 05:13:06;;;;;;;37.10;32.60;;;11.30;99.90;;;;;;5073334;28;20244;-68
2021/05/12 05:15:32;;;;;;;35.87;32.00;;;11.40;99.90;;;;;;5074332;28;20617;-68
2021/05/12 05:17:58;;;;;;;35.97;31.97;;;11.40;99.90;;;;;;5073190;28;20863;-68
2021/05/12 05:20:26;;;;;;;34.07;30.47;;;11.40;99.90;;;;;;5079821;28;20495;-68
2021/05/12 05:22:51;;;;;;;35.77;30.57;;;11.50;99.90;;;;;;5093301;28;20257;-68
2021/05/12 05:25:17;;;;;;;31.90;26.60;;;11.50;99.90;;;;;;5093415;28;20867;-68
2021/05/12 05:27:42;;;;;;;31.20;27.87;;;11.60;99.90;;;;;;5093286;28;20166;-68
2021/05/12 05:30:09;;;;;;;27.90;25.17;;;11.70;99.90;;;;;;5093915;28;20215;-68
2021/05/12 05:32:34;;;;;;;27.23;24.10;;;11.80;99.90;;;;;;5093015;28;20572;-68
2021/05/12 05:35:00;;;;;;;33.90;23.17;;;12.00;99.90;;;;;;5093060;28;20401;-68
2021/05/12 05:37:25;;;;;;;26.70;22.20;;;12.10;99.90;;;;;;5092148;28;20171;-68
2021/05/12 05:39:52;;;;;;;23.57;21.10;;;12.30;99.90;;;;;;5093240;28;20535;-68
2021/05/12 05:42:18;;;;;;;32.00;23.77;;;12.30;99.90;;;;;;5093856;28;20636;-68
2021/05/12 05:44:43;;;;;;;24.27;21.23;;;12.50;99.90;;;;;;5094229;28;20507;-68
2021/05/12 05:47:09;;;;;;;25.73;21.10;;;12.60;99.90;;;;;;5093110;28;20165;-68
2021/05/12 05:49:35;;;;;;;24.33;19.83;;;12.60;99.90;;;;;;5092927;28;20251;-68
2021/05/12 05:52:02;;;;;;;22.67;20.27;;;12.70;99.90;;;;;;5092776;28;20204;-68
2021/05/12 05:54:28;;;;;;;26.63;21.13;;;12.80;99.90;;;;;;5092110;28;20457;-68
2021/05/12 05:56:53;;;;;;;22.23;19.97;;;12.90;99.90;;;;;;5093266;28;20389;-68
2021/05/12 05:59:19;;;;;;;23.43;20.43;;;13.00;99.90;;;;;;5093006;28;20183;-68
2021/05/12 06:01:44;;;;;;;19.67;17.83;;;13.10;99.90;;;;;;5095839;28;20218;-68
2021/05/12 06:04:10;;;;;;;19.13;17.20;;;13.10;99.90;;;;;;5112675;28;20169;-68
2021/05/12 06:06:36;;;;;;;20.07;17.70;;;13.20;99.90;;;;;;5111496;28;20150;-68
2021/05/12 06:09:02;;;;;;;20.47;18.27;;;13.20;99.90;;;;;;5112431;28;20177;-68
2021/05/12 06:11:28;;;;;;;20.13;17.70;;;13.20;99.90;;;;;;5098179;28;20190;-68
2021/05/12 06:13:54;;;;;;;21.87;19.57;;;13.10;99.90;;;;;;5073107;28;20445;-68
2021/05/12 06:16:20;;;;;;;20.27;18.30;;;13.10;99.90;;;;;;5072503;28;20214;-68
2021/05/12 06:18:46;;;;;;;22.57;18.70;;;13.10;99.90;;;;;;5073406;28;20152;-68
2021/05/12 06:21:13;;;;;;;19.77;17.67;;;13.20;99.90;;;;;;5076372;28;20405;-68
2021/05/12 06:23:40;;;;;;;21.33;18.10;;;13.40;99.90;;;;;;5076297;28;20190;-68
2021/05/12 06:26:14;;;;;;;25.03;20.13;;;13.50;99.90;;;;;;5076557;28;20417;-68
2021/05/12 06:28:40;;;;;;;19.77;16.20;;;13.80;99.90;;;;;;5085851;28;20981;-68
2021/05/12 06:31:07;;;;;;;24.60;16.57;;;14.00;99.90;;;;;;5096218;28;20894;-68
2021/05/12 06:33:33;;;;;;;18.07;15.33;;;14.20;99.90;;;;;;5096249;28;20468;-68
2021/05/12 06:35:59;;;;;;;18.03;14.83;;;14.40;99.90;;;;;;5096421;28;20402;-68
2021/05/12 06:38:25;;;;;;;17.20;15.40;;;14.60;99.90;;;;;;5098308;28;20151;-68
2021/05/12 06:40:51;;;;;;;19.70;15.80;;;14.80;99.90;;;;;;5097013;28;20427;-68
2021/05/12 06:43:16;;;;;;;17.83;14.80;;;15.00;99.90;;;;;;5096245;28;20159;-68
2021/05/12 06:45:42;;;;;;;18.80;14.63;;;15.10;99.90;;;;;;5095461;28;20235;-68
2021/05/12 06:48:08;;;;;;;17.10;14.30;;;15.30;99.90;;;;;;5096073;28;20634;-68
2021/05/12 06:50:34;;;;;;;15.27;13.67;;;15.40;99.90;;;;;;5096159;28;20178;-68
2021/05/12 06:52:59;;;;;;;16.53;12.40;;;15.50;99.90;;;;;;5096371;28;20484;-68
2021/05/12 06:55:26;;;;;;;16.27;12.90;;;15.70;99.90;;;;;;5096380;28;20624;-68
2021/05/12 06:57:51;;;;;;;14.80;12.17;;;15.90;99.90;;;;;;5095926;28;20680;-68
2021/05/12 07:00:18;;;;;;;17.30;12.93;;;16.00;99.90;;;;;;5095372;28;20511;-68
2021/05/12 07:02:44;;;;;;;16.17;12.80;;;16.20;99.90;;;;;;5094798;28;20175;-68
2021/05/12 07:05:14;;;;;;;15.13;11.57;;;16.30;99.90;;;;;;5095689;28;20438;-68
2021/05/12 07:07:41;;;;;;;13.70;12.00;;;16.40;99.90;;;;;;5096865;28;20412;-68
2021/05/12 07:10:07;;;;;;;17.87;13.13;;;16.40;99.90;;;;;;5096466;28;20902;-68
2021/05/12 07:12:32;;;;;;;11.73;10.33;;;16.50;99.90;;;;;;5095749;28;20472;-68
2021/05/12 07:14:58;;;;;;;11.63;10.27;;;16.50;99.90;;;;;;5095365;28;20373;-68
2021/05/12 07:17:23;;;;;;;15.47;10.63;;;16.50;99.90;;;;;;5079540;28;20186;-68
2021/05/12 07:19:49;;;;;;;14.77;10.60;;;16.50;99.90;;;;;;5075992;28;20211;-68
2021/05/12 07:22:15;;;;;;;14.17;11.07;;;16.60;99.90;;;;;;5075510;28;20198;-68
2021/05/12 07:24:40;;;;;;;10.97;9.63;;;16.70;99.90;;;;;;5075980;28;20380;-68
2021/05/12 07:27:06;;;;;;;14.47;10.70;;;16.70;99.90;;;;;;5075213;28;20288;-68
2021/05/12 07:29:31;;;;;;;11.07;9.97;;;16.60;99.90;;;;;;5074733;28;20159;-68
2021/05/12 07:31:57;;;;;;;12.53;10.80;;;16.50;99.90;;;;;;5074861;28;20203;-68
2021/05/12 07:34:22;;;;;;;15.77;11.37;;;16.40;99.90;;;;;;5074842;28;20613;-68
2021/05/12 07:36:48;;;;;;;12.20;10.97;;;16.30;99.90;;;;;;5075911;28;20182;-68
2021/05/12 07:39:14;;;;;;;15.53;10.40;;;17.00;99.90;;;;;;5075841;28;20219;-68
2021/05/12 07:41:40;;;;;;;16.97;11.13;;;18.00;99.90;;;;;;5076784;28;20164;-68
2021/05/12 07:44:06;;;;;;;14.53;10.00;;;18.80;99.90;;;;;;5104565;28;20173;-68
2021/05/12 07:46:32;;;;;;;13.73;9.33;;;19.40;99.90;;;;;;5094969;28;20885;-68
2021/05/12 07:48:57;;;;;;;11.90;8.50;;;20.30;99.90;;;;;;5094863;28;20239;-68
2021/05/12 07:51:23;;;;;;;10.87;8.13;;;20.90;99.90;;;;;;5094847;28;20476;-68
2021/05/12 07:53:50;;;;;;;16.57;8.77;;;21.40;99.90;;;;;;5084294;28;20644;-68
2021/05/12 07:56:16;;;;;;;13.20;8.30;;;22.20;99.90;;;;;;5074183;28;20172;-66
2021/05/12 07:58:42;;;;;;;12.17;8.17;;;22.60;96.60;;;;;;5074028;28;20786;-66
2021/05/12 08:03:54;;;;;;;8.53;7.67;;;22.60;94.40;;;;;;5073476;28;20179;-66
2021/05/12 08:06:20;;;;;;;13.13;7.57;;;22.60;94.20;;;;;;5074220;28;20458;-66
2021/05/12 08:08:45;;;;;;;8.27;7.43;;;22.60;92.90;;;;;;5075524;28;20250;-66
2021/05/12 08:11:11;;;;;;;9.70;7.73;;;22.70;92.20;;;;;;5074546;28;20225;-66
2021/05/12 08:13:37;;;;;;;9.30;7.87;;;22.60;92.00;;;;;;5073745;28;20191;-66
2021/05/12 08:16:02;;;;;;;13.40;7.10;;;22.80;93.00;;;;;;5073835;28;20187;-66
2021/05/12 08:18:28;;;;;;;7.83;7.00;;;23.30;90.90;;;;;;5074167;28;20168;-66
2021/05/12 08:20:56;;;;;;;11.33;6.97;;;23.50;90.70;;;;;;5074186;28;20171;-66
2021/05/12 08:23:22;;;;;;;7.37;6.67;;;23.20;90.30;;;;;;5074880;28;20183;-66
2021/05/12 08:25:48;;;;;;;10.93;7.70;;;22.80;90.40;;;;;;5073662;28;20500;-66
2021/05/12 08:28:14;;;;;;;9.93;7.17;;;23.00;90.80;;;;;;5087355;28;20956;-66
2021/05/12 08:30:45;;;;;;;10.50;6.83;;;24.00;87.20;;;;;;5094242;28;20155;-66
2021/05/12 08:33:11;;;;;;;11.10;7.30;;;25.20;83.10;;;;;;5094027;28;20206;-67
2021/05/12 08:35:40;;;;;;;9.33;6.40;;;26.40;72.00;;;;;;5094155;28;20395;-67
2021/05/12 08:38:08;;;;;;;11.00;5.70;;;27.60;65.70;;;;;;5094347;28;20452;-67
2021/05/12 08:40:34;;;;;;;7.83;5.17;;;28.60;61.10;;;;;;5093794;28;20389;-67
2021/05/12 08:43:03;;;;;;;6.90;5.37;;;29.70;55.40;;;;;;5093252;28;20397;-67
2021/05/12 08:45:29;;;;;;;8.57;5.73;;;30.90;51.70;;;;;;5092903;28;20473;-67
2021/05/12 08:47:56;;;;;;;8.47;5.10;;;32.00;47.80;;;;;;5094001;28;20405;-67
2021/05/12 08:50:23;;;;;;;11.57;5.47;;;32.70;45.30;;;;;;5090755;28;20443;-67
2021/05/12 08:52:49;;;;;;;6.27;5.00;;;33.30;43.10;;;;;;5093975;28;20497;-67
2021/05/12 08:55:16;;;;;;;9.20;5.73;;;33.70;41.20;;;;;;5093535;28;20472;-67
2021/05/12 08:57:41;;;;;;;6.27;5.03;;;32.90;40.60;;;;;;5093362;28;20397;-67
2021/05/12 09:00:07;;;;;;;5.40;4.90;;;31.20;42.60;;;;;;5093467;28;20520;-67
2021/05/12 09:02:33;;;;;;;7.33;4.87;;;29.60;45.60;;;;;;5076353;28;20221;-67
2021/05/12 09:04:59;;;;;;;6.20;4.80;;;28.60;47.80;;;;;;5073561;28;20382;-68
2021/05/12 09:07:24;;;;;;;11.50;5.30;;;28.60;49.30;;;;;;5073372;28;20152;-68
2021/05/12 09:09:50;;;;;;;5.70;4.70;;;29.20;47.60;;;;;;5077984;28;20172;-67
2021/05/12 09:12:17;;;;;;;5.03;4.07;;;30.00;46.30;;;;;;5078085;28;20195;-67
2021/05/12 09:14:53;;;;;;;7.30;5.07;;;30.30;45.00;;;;;;5084212;28;20416;-68
2021/05/12 09:17:30;;;;;;;8.03;5.37;;;29.90;44.60;;;;;;5076927;28;20402;-68
2021/05/12 09:19:56;;;;;;;9.77;7.10;;;29.10;45.60;;;;;;5082083;28;20438;-68
2021/05/12 09:22:21;;;;;;;10.43;7.67;;;28.00;48.10;;;;;;5072458;28;20418;-68
2021/05/12 09:24:47;;;;;;;5.20;4.70;;;27.50;50.70;;;;;;5075934;28;20252;-68
2021/05/12 09:27:16;;;;;;;7.83;5.37;;;27.50;50.20;;;;;;5073092;28;20213;-68
2021/05/12 09:29:45;;;;;;;8.80;5.43;;;27.30;50.20;;;;;;5076489;28;20198;-68
2021/05/12 09:37:28;;;;;;;8.27;5.10;;;26.80;50.20;;;;;;5056776;27;20524;-69
2021/05/12 09:39:54;;;;;;;7.27;4.80;;;24.10;54.90;;;;;;5063461;28;20532;-69
2021/05/12 09:42:21;;;;;;;7.93;6.23;;;23.00;57.30;;;;;;5051431;28;20403;-69
2021/05/12 09:44:47;;;;;;;7.50;6.30;;;22.80;60.10;;;;;;5054430;28;20394;-69
2021/05/12 09:47:29;;;;;;;7.37;5.47;;;22.00;60.30;;;;;;5055067;28;20413;-69
2021/05/12 09:49:55;;;;;;;9.10;6.57;;;22.00;62.60;;;;;;5056993;28;20177;-69
2021/05/12 09:52:29;;;;;;;11.40;7.03;;;22.00;63.80;;;;;;5060281;28;20868;-69
2021/05/12 09:55:05;;;;;;;6.17;4.93;;;22.40;66.20;;;;;;5053892;28;20407;-69
2021/05/12 09:57:30;;;;;;;5.60;5.10;;;22.40;63.30;;;;;;5053912;28;20443;-69
2021/05/12 09:59:56;;;;;;;6.47;5.57;;;22.40;60.10;;;;;;5052037;28;20458;-69
2021/05/12 10:02:21;;;;;;;5.87;5.37;;;22.30;60.40;;;;;;5057453;28;20159;-69
2021/05/12 10:04:49;;;;;;;7.67;5.40;;;22.20;62.30;;;;;;5057990;28;20252;-69
2021/05/12 10:09:54;;;;;;;5.97;4.20;;;22.10;60.60;;;;;;5099121;27;20568;-69
2021/05/12 10:14:59;;;;;;;8.63;4.40;;;21.70;60.30;;;;;;5099376;27;20515;-67
2021/05/12 10:17:28;;;;;;;6.17;3.57;;;21.60;61.00;;;;;;5087239;28;20404;-68
2021/05/12 10:19:55;;;;;;;6.37;3.80;;;21.60;60.80;;;;;;5087487;28;20394;-67
2021/05/12 10:22:21;;;;;;;7.20;4.00;;;21.70;60.20;;;;;;5087628;28;20397;-68
2021/05/12 10:24:49;;;;;;;7.07;4.53;;;21.80;59.60;;;;;;5088205;28;20414;-67
2021/05/12 10:29:55;;;;;;;4.80;3.70;;;21.60;62.30;;;;;;5097711;27;20519;-68
2021/05/12 10:32:28;;;;;;;6.93;5.40;;;21.40;60.80;;;;;;5107792;28;20905;-69
2021/05/12 10:37:43;;;;;;;6.63;4.33;;;21.00;62.80;;;;;;5093072;27;20522;-68
2021/05/12 10:45:58;;;;;;;6.37;3.50;;;20.10;65.80;;;;;;5094175;27;20505;-69
2021/05/12 10:54:04;;;;;;;8.33;4.03;;;19.70;65.60;;;;;;5110904;27;20506;-67
2021/05/12 10:56:42;;;;;;;5.30;3.57;;;19.60;66.10;;;;;;5110717;28;20478;-68
2021/05/12 10:59:10;;;;;;;5.13;3.13;;;19.70;65.60;;;;;;5110990;28;20432;-68
2021/05/12 11:04:22;;;;;;;4.57;2.93;;;19.90;63.70;;;;;;5111058;27;20569;-68
2021/05/12 11:09:43;;;;;;;3.67;2.70;;;20.00;59.90;;;;;;5059002;28;20584;-68
2021/05/12 11:12:12;;;;;;;7.30;3.00;;;20.30;66.00;;;;;;5026788;28;20399;-68
2021/05/12 11:14:39;;;;;;;5.50;3.20;;;20.30;61.60;;;;;;5027335;28;20391;-69
2021/05/12 11:25:36;;;;;;;6.13;4.33;;;20.10;65.40;;;;;;5110942;27;21022;-68
2021/05/12 11:36:14;;;;;;;3.53;3.23;;;20.30;63.40;;;;;;5152330;27;20553;-68
2021/05/12 11:38:40;;;;;;;8.00;4.30;;;20.10;61.20;;;;;;5151988;27;20446;-68
2021/05/12 11:46:34;;;;;;;6.63;4.50;;;19.80;62.20;;;;;;5152252;27;20515;-69
2021/05/12 11:49:05;;;;;;;6.60;4.33;;;19.70;64.00;;;;;;5151973;27;20390;-69
2021/05/12 11:54:25;;;;;;;7.30;4.27;;;19.70;61.60;;;;;;5090533;28;20570;-68
2021/05/12 11:59:31;;;;;;;7.23;3.77;;;19.60;63.20;;;;;;5112408;27;20518;-69
2021/05/12 12:02:05;;;;;;;4.47;3.47;;;19.50;63.60;;;;;;5111096;28;21173;-68
2021/05/12 12:07:14;;;;;;;6.60;4.20;;;19.30;65.50;;;;;;5131417;27;20496;-69
2021/05/12 12:09:40;;;;;;;5.13;4.07;;;19.20;67.60;;;;;;5113661;28;20475;-69
2021/05/12 12:12:06;;;;;;;8.03;4.20;;;19.10;68.20;;;;;;5111454;28;20582;-69
2021/05/12 12:14:34;;;;;;;7.57;4.23;;;19.10;66.90;;;;;;5112245;28;20158;-68
2021/05/12 12:17:00;;;;;;;7.77;5.20;;;19.10;66.60;;;;;;5123426;28;20399;-68
2021/05/12 12:19:26;;;;;;;6.73;4.43;;;19.20;63.70;;;;;;5131355;28;20377;-68
2021/05/12 12:21:54;;;;;;;6.20;4.03;;;19.20;64.10;;;;;;5131225;28;20907;-68
2021/05/12 12:24:24;;;;;;;5.37;3.93;;;19.30;64.60;;;;;;5131214;28;20195;-68
2021/05/12 12:26:53;;;;;;;6.20;4.20;;;19.30;63.00;;;;;;5112277;28;20459;-69
2021/05/12 12:29:20;;;;;;;10.80;4.50;;;19.30;65.20;;;;;;5110910;28;20388;-69
2021/05/12 12:31:49;;;;;;;6.33;5.07;;;19.30;63.70;;;;;;5110398;28;20548;-69
2021/05/12 12:37:10;;;;;;;8.20;5.50;;;19.40;65.30;;;;;;5090390;28;20874;-69
2021/05/12 12:42:16;;;;;;;7.50;4.93;;;19.40;65.70;;;;;;5022453;27;20516;-68
2021/05/12 12:44:43;;;;;;;10.30;6.30;;;19.30;65.90;;;;;;5007681;28;20407;-68
2021/05/12 12:47:15;;;;;;;8.30;5.10;;;19.20;67.50;;;;;;5007151;28;20417;-68
2021/05/12 12:49:47;;;;;;;7.83;5.23;;;19.10;68.20;;;;;;5007419;28;20492;-68
2021/05/12 12:52:18;;;;;;;9.60;4.83;;;19.00;67.90;;;;;;5007350;28;20405;-68
2021/05/12 12:54:51;;;;;;;7.80;4.80;;;18.90;69.00;;;;;;5007339;28;20400;-69
2021/05/12 12:57:20;;;;;;;5.70;4.70;;;18.70;70.80;;;;;;5007593;28;20397;-68
2021/05/12 13:00:09;;;;;;;7.23;5.20;;;18.60;70.20;;;;;;5007013;28;20924;-68
2021/05/12 13:02:34;;;;;;;5.90;5.30;;;18.50;69.90;;;;;;5006081;28;20390;-68
2021/05/12 13:05:17;;;;;;;7.80;4.53;;;18.30;69.50;;;;;;5007005;28;20889;-68
2021/05/12 13:07:44;;;;;;;7.33;4.07;;;18.20;68.80;;;;;;5006987;28;20573;-68
2021/05/12 13:10:34;;;;;;;7.73;4.17;;;18.10;69.00;;;;;;5007473;28;20465;-68
2021/05/12 13:13:00;;;;;;;9.10;4.43;;;18.00;74.50;;;;;;5006336;28;20904;-68
2021/05/12 13:15:29;;;;;;;8.10;4.73;;;17.90;77.00;;;;;;5007073;28;20417;-68
2021/05/12 13:20:40;;;;;;;7.47;4.80;;;17.50;80.90;;;;;;5111109;27;20574;-68
2021/05/12 13:28:25;;;;;;;11.33;5.57;;;17.40;81.90;;;;;;5132013;27;20500;-68
2021/05/12 13:30:52;;;;;;;22.40;19.13;;;16.90;95.70;;;;;;5131612;28;20428;-68
2021/05/12 13:33:19;;;;;;;10.07;7.07;;;16.70;95.60;;;;;;5125326;27;20432;-68
2021/05/12 13:35:45;;;;;;;6.77;5.97;;;16.60;97.00;;;;;;5110878;28;20873;-68
2021/05/12 13:38:11;;;;;;;9.53;6.00;;;16.50;98.70;;;;;;5111258;28;20420;-69
2021/05/12 13:40:37;;;;;;;13.43;7.63;;;16.50;99.90;;;;;;5111597;28;20396;-69
2021/05/12 13:43:03;;;;;;;8.93;6.20;;;16.50;99.90;;;;;;5110674;28;20646;-68
2021/05/12 13:45:29;;;;;;;9.53;6.73;;;16.40;99.90;;;;;;5110691;28;20158;-68
2021/05/12 13:47:55;;;;;;;8.60;7.00;;;16.40;99.90;;;;;;5110519;28;20432;-68
2021/05/12 13:50:26;;;;;;;7.80;6.23;;;16.50;99.90;;;;;;5111096;28;20435;-68
2021/05/12 13:53:02;;;;;;;8.53;5.57;;;16.60;99.90;;;;;;5111103;28;20150;-69
2021/05/12 13:55:39;;;;;;;9.00;6.53;;;16.70;99.90;;;;;;5111180;28;20905;-68